sensor_id;sensor_type;location;lat;lon;timestamp;P1;durP1;ratioP1;P2;durP2;ratioP2
3095;SDS011;1558;42.700;23.360;2023-04-15T00:00:06;8.33;;;6.90;;
3095;SDS011;1558;42.700;23.360;2023-04-15T00:02:35;8.10;;;6.40;;
3095;SDS011;1558;42.700;23.360;2023-04-15T00:05:04;8.37;;;7.40;;
3095;SDS011;1558;42.700;23.360;2023-04-15T00:07:32;7.30;;;6.60;;
3095;SDS011;1558;42.700;23.360;2023-04-15T00:10:00;8.83;;;6.93;;
3095;SDS011;1558;42.700;23.360;2023-04-15T00:12:29;10.00;;;8.23;;
3095;SDS011;1558;42.700;23.360;2023-04-15T00:14:57;10.97;;;8.63;;
3095;SDS011;1558;42.700;23.360;2023-04-15T00:17:27;10.80;;;8.90;;
3095;SDS011;1558;42.700;23.360;2023-04-15T00:19:55;10.40;;;8.93;;
3095;SDS011;1558;42.700;23.360;2023-04-15T00:22:25;9.47;;;8.47;;
3095;SDS011;1558;42.700;23.360;2023-04-15T00:24:53;10.17;;;8.37;;
3095;SDS011;1558;42.700;23.360;2023-04-15T00:27:21;10.40;;;7.93;;
3095;SDS011;1558;42.700;23.360;2023-04-15T00:29:49;11.50;;;9.13;;
3095;SDS011;1558;42.700;23.360;2023-04-15T00:32:18;8.77;;;7.53;;
3095;SDS011;1558;42.700;23.360;2023-04-15T00:34:47;10.43;;;7.93;;
3095;SDS011;1558;42.700;23.360;2023-04-15T00:37:16;11.77;;;8.20;;
3095;SDS011;1558;42.700;23.360;2023-04-15T00:39:44;9.07;;;7.53;;
3095;SDS011;1558;42.700;23.360;2023-04-15T00:42:12;11.73;;;9.43;;
3095;SDS011;1558;42.700;23.360;2023-04-15T00:44:40;10.07;;;8.00;;
3095;SDS011;1558;42.700;23.360;2023-04-15T00:47:08;9.97;;;7.20;;
3095;SDS011;1558;42.700;23.360;2023-04-15T00:49:37;10.27;;;7.43;;
3095;SDS011;1558;42.700;23.360;2023-04-15T00:52:06;8.87;;;7.60;;
3095;SDS011;1558;42.700;23.360;2023-04-15T00:54:34;8.90;;;7.60;;
3095;SDS011;1558;42.700;23.360;2023-04-15T00:57:04;9.13;;;8.00;;
3095;SDS011;1558;42.700;23.360;2023-04-15T00:59:32;9.93;;;8.20;;
3095;SDS011;1558;42.700;23.360;2023-04-15T01:02:00;10.33;;;8.83;;
3095;SDS011;1558;42.700;23.360;2023-04-15T01:04:29;11.20;;;8.27;;
3095;SDS011;1558;42.700;23.360;2023-04-15T01:06:57;11.03;;;8.47;;
3095;SDS011;1558;42.700;23.360;2023-04-15T01:09:26;11.83;;;8.57;;
3095;SDS011;1558;42.700;23.360;2023-04-15T01:11:54;10.13;;;8.50;;
3095;SDS011;1558;42.700;23.360;2023-04-15T01:14:23;9.93;;;8.80;;
3095;SDS011;1558;42.700;23.360;2023-04-15T01:16:52;11.33;;;9.60;;
3095;SDS011;1558;42.700;23.360;2023-04-15T01:19:20;10.90;;;8.80;;
3095;SDS011;1558;42.700;23.360;2023-04-15T01:21:48;10.27;;;8.17;;
3095;SDS011;1558;42.700;23.360;2023-04-15T01:24:17;9.10;;;6.87;;
3095;SDS011;1558;42.700;23.360;2023-04-15T01:26:48;9.63;;;5.97;;
3095;SDS011;1558;42.700;23.360;2023-04-15T01:29:16;8.23;;;6.37;;
3095;SDS011;1558;42.700;23.360;2023-04-15T01:31:48;7.47;;;6.33;;
3095;SDS011;1558;42.700;23.360;2023-04-15T01:34:17;9.87;;;7.13;;
3095;SDS011;1558;42.700;23.360;2023-04-15T01:36:46;8.60;;;7.70;;
3095;SDS011;1558;42.700;23.360;2023-04-15T01:39:14;9.53;;;6.93;;
3095;SDS011;1558;42.700;23.360;2023-04-15T01:41:43;10.83;;;8.43;;
3095;SDS011;1558;42.700;23.360;2023-04-15T01:44:12;13.40;;;7.20;;
3095;SDS011;1558;42.700;23.360;2023-04-15T01:46:40;10.87;;;7.90;;
3095;SDS011;1558;42.700;23.360;2023-04-15T01:49:08;10.10;;;8.53;;
3095;SDS011;1558;42.700;23.360;2023-04-15T01:51:36;10.33;;;8.57;;
3095;SDS011;1558;42.700;23.360;2023-04-15T01:54:04;11.13;;;9.30;;
3095;SDS011;1558;42.700;23.360;2023-04-15T01:56:32;13.10;;;8.70;;
3095;SDS011;1558;42.700;23.360;2023-04-15T01:59:00;11.60;;;9.43;;
3095;SDS011;1558;42.700;23.360;2023-04-15T02:01:30;12.63;;;9.53;;
3095;SDS011;1558;42.700;23.360;2023-04-15T02:03:58;9.80;;;7.70;;
3095;SDS011;1558;42.700;23.360;2023-04-15T02:06:26;8.53;;;6.57;;
3095;SDS011;1558;42.700;23.360;2023-04-15T02:08:54;8.57;;;6.27;;
3095;SDS011;1558;42.700;23.360;2023-04-15T02:11:22;7.03;;;6.33;;
3095;SDS011;1558;42.700;23.360;2023-04-15T02:13:50;7.67;;;6.87;;
3095;SDS011;1558;42.700;23.360;2023-04-15T02:16:18;7.60;;;6.80;;
3095;SDS011;1558;42.700;23.360;2023-04-15T02:18:48;7.60;;;6.80;;
3095;SDS011;1558;42.700;23.360;2023-04-15T02:21:17;8.57;;;6.13;;
3095;SDS011;1558;42.700;23.360;2023-04-15T02:23:45;7.73;;;6.90;;
3095;SDS011;1558;42.700;23.360;2023-04-15T02:26:13;8.43;;;6.07;;
3095;SDS011;1558;42.700;23.360;2023-04-15T02:28:42;6.27;;;5.63;;
3095;SDS011;1558;42.700;23.360;2023-04-15T02:31:10;8.90;;;6.63;;
3095;SDS011;1558;42.700;23.360;2023-04-15T02:33:38;7.10;;;6.40;;
3095;SDS011;1558;42.700;23.360;2023-04-15T02:36:07;7.87;;;6.47;;
3095;SDS011;1558;42.700;23.360;2023-04-15T02:38:37;7.53;;;6.83;;
3095;SDS011;1558;42.700;23.360;2023-04-15T02:41:08;9.57;;;7.13;;
3095;SDS011;1558;42.700;23.360;2023-04-15T02:43:36;8.03;;;7.33;;
3095;SDS011;1558;42.700;23.360;2023-04-15T02:46:05;6.93;;;6.03;;
3095;SDS011;1558;42.700;23.360;2023-04-15T02:48:33;6.73;;;6.03;;
3095;SDS011;1558;42.700;23.360;2023-04-15T02:51:12;8.47;;;6.33;;
3095;SDS011;1558;42.700;23.360;2023-04-15T02:53:40;6.73;;;5.63;;
3095;SDS011;1558;42.700;23.360;2023-04-15T02:56:09;7.10;;;6.40;;
3095;SDS011;1558;42.700;23.360;2023-04-15T02:58:38;8.83;;;5.90;;
3095;SDS011;1558;42.700;23.360;2023-04-15T03:01:07;7.60;;;6.00;;
3095;SDS011;1558;42.700;23.360;2023-04-15T03:03:35;8.63;;;5.20;;
3095;SDS011;1558;42.700;23.360;2023-04-15T03:06:03;7.23;;;4.90;;
3095;SDS011;1558;42.700;23.360;2023-04-15T03:08:33;7.57;;;5.47;;
3095;SDS011;1558;42.700;23.360;2023-04-15T03:11:01;10.30;;;5.90;;
3095;SDS011;1558;42.700;23.360;2023-04-15T03:13:30;6.87;;;5.10;;
3095;SDS011;1558;42.700;23.360;2023-04-15T03:15:58;6.13;;;5.23;;
3095;SDS011;1558;42.700;23.360;2023-04-15T03:18:26;6.93;;;5.23;;
3095;SDS011;1558;42.700;23.360;2023-04-15T03:20:54;5.30;;;4.80;;
3095;SDS011;1558;42.700;23.360;2023-04-15T03:23:22;6.33;;;5.50;;
3095;SDS011;1558;42.700;23.360;2023-04-15T03:25:52;5.80;;;5.20;;
3095;SDS011;1558;42.700;23.360;2023-04-15T03:28:21;8.17;;;5.67;;
3095;SDS011;1558;42.700;23.360;2023-04-15T03:30:49;7.40;;;5.60;;
3095;SDS011;1558;42.700;23.360;2023-04-15T03:33:17;5.30;;;4.80;;
3095;SDS011;1558;42.700;23.360;2023-04-15T03:35:45;5.33;;;4.67;;
3095;SDS011;1558;42.700;23.360;2023-04-15T03:38:13;5.37;;;4.30;;
3095;SDS011;1558;42.700;23.360;2023-04-15T03:40:41;6.20;;;5.10;;
3095;SDS011;1558;42.700;23.360;2023-04-15T03:43:10;6.37;;;5.20;;
3095;SDS011;1558;42.700;23.360;2023-04-15T03:45:38;5.20;;;4.70;;
3095;SDS011;1558;42.700;23.360;2023-04-15T03:48:06;6.03;;;5.43;;
3095;SDS011;1558;42.700;23.360;2023-04-15T03:50:43;5.30;;;4.80;;
3095;SDS011;1558;42.700;23.360;2023-04-15T03:53:11;6.27;;;4.97;;
3095;SDS011;1558;42.700;23.360;2023-04-15T03:55:39;7.60;;;5.30;;
3095;SDS011;1558;42.700;23.360;2023-04-15T03:58:07;5.70;;;5.10;;
3095;SDS011;1558;42.700;23.360;2023-04-15T04:00:39;7.13;;;6.07;;
3095;SDS011;1558;42.700;23.360;2023-04-15T04:03:07;6.63;;;5.40;;
3095;SDS011;1558;42.700;23.360;2023-04-15T04:05:36;7.07;;;5.60;;
3095;SDS011;1558;42.700;23.360;2023-04-15T04:08:06;6.37;;;5.77;;
3095;SDS011;1558;42.700;23.360;2023-04-15T04:10:34;9.33;;;5.73;;
3095;SDS011;1558;42.700;23.360;2023-04-15T04:13:02;7.20;;;6.00;;
3095;SDS011;1558;42.700;23.360;2023-04-15T04:15:30;7.20;;;5.67;;
3095;SDS011;1558;42.700;23.360;2023-04-15T04:18:00;11.67;;;10.50;;
3095;SDS011;1558;42.700;23.360;2023-04-15T04:20:28;14.40;;;12.27;;
3095;SDS011;1558;42.700;23.360;2023-04-15T04:22:57;22.73;;;20.47;;
3095;SDS011;1558;42.700;23.360;2023-04-15T04:25:25;22.83;;;20.40;;
3095;SDS011;1558;42.700;23.360;2023-04-15T04:27:53;14.73;;;13.33;;
3095;SDS011;1558;42.700;23.360;2023-04-15T04:30:21;8.63;;;7.73;;
3095;SDS011;1558;42.700;23.360;2023-04-15T04:32:49;7.87;;;7.03;;
3095;SDS011;1558;42.700;23.360;2023-04-15T04:35:20;10.57;;;7.93;;
3095;SDS011;1558;42.700;23.360;2023-04-15T04:37:48;7.83;;;6.73;;
3095;SDS011;1558;42.700;23.360;2023-04-15T04:40:17;8.47;;;6.77;;
3095;SDS011;1558;42.700;23.360;2023-04-15T04:42:46;7.30;;;6.57;;
3095;SDS011;1558;42.700;23.360;2023-04-15T04:45:14;12.60;;;7.17;;
3095;SDS011;1558;42.700;23.360;2023-04-15T04:47:42;12.70;;;6.43;;
3095;SDS011;1558;42.700;23.360;2023-04-15T04:50:10;9.33;;;6.87;;
3095;SDS011;1558;42.700;23.360;2023-04-15T13:20:45;1.25;;;1.00;;
3095;SDS011;1558;42.700;23.360;2023-04-15T13:23:13;1.95;;;1.38;;
3095;SDS011;1558;42.700;23.360;2023-04-15T13:25:41;2.92;;;1.30;;
3095;SDS011;1558;42.700;23.360;2023-04-15T13:28:09;1.75;;;1.65;;
3095;SDS011;1558;42.700;23.360;2023-04-15T13:30:38;1.48;;;1.27;;
3095;SDS011;1558;42.700;23.360;2023-04-15T13:33:06;1.40;;;1.20;;
3095;SDS011;1558;42.700;23.360;2023-04-15T13:35:34;1.30;;;1.00;;
3095;SDS011;1558;42.700;23.360;2023-04-15T13:38:04;2.47;;;1.10;;
3095;SDS011;1558;42.700;23.360;2023-04-15T13:40:32;1.80;;;1.50;;
3095;SDS011;1558;42.700;23.360;2023-04-15T13:43:00;3.97;;;1.77;;
3095;SDS011;1558;42.700;23.360;2023-04-15T13:45:28;1.52;;;1.42;;
3095;SDS011;1558;42.700;23.360;2023-04-15T13:47:56;2.38;;;1.55;;
3095;SDS011;1558;42.700;23.360;2023-04-15T13:50:25;1.38;;;1.20;;
3095;SDS011;1558;42.700;23.360;2023-04-15T13:52:53;2.70;;;1.50;;
3095;SDS011;1558;42.700;23.360;2023-04-15T13:55:23;2.13;;;1.58;;
3095;SDS011;1558;42.700;23.360;2023-04-15T13:57:54;1.50;;;1.15;;
3095;SDS011;1558;42.700;23.360;2023-04-15T14:00:22;1.92;;;1.30;;
3095;SDS011;1558;42.700;23.360;2023-04-15T14:02:50;2.67;;;1.50;;
3095;SDS011;1558;42.700;23.360;2023-04-15T14:05:18;1.63;;;1.20;;
3095;SDS011;1558;42.700;23.360;2023-04-15T14:07:47;1.30;;;1.10;;
3095;SDS011;1558;42.700;23.360;2023-04-15T14:10:15;2.80;;;1.20;;
3095;SDS011;1558;42.700;23.360;2023-04-15T14:12:45;2.15;;;1.35;;
3095;SDS011;1558;42.700;23.360;2023-04-15T14:15:13;2.65;;;1.20;;
3095;SDS011;1558;42.700;23.360;2023-04-15T14:17:41;4.13;;;1.55;;
3095;SDS011;1558;42.700;23.360;2023-04-15T14:20:09;2.15;;;1.20;;
3095;SDS011;1558;42.700;23.360;2023-04-15T14:22:39;1.67;;;1.30;;
3095;SDS011;1558;42.700;23.360;2023-04-15T14:25:08;1.80;;;1.15;;
3095;SDS011;1558;42.700;23.360;2023-04-15T14:27:53;2.30;;;1.70;;
3095;SDS011;1558;42.700;23.360;2023-04-15T14:30:21;2.28;;;1.42;;
3095;SDS011;1558;42.700;23.360;2023-04-15T14:32:49;1.42;;;1.20;;
3095;SDS011;1558;42.700;23.360;2023-04-15T14:35:18;1.60;;;1.27;;
3095;SDS011;1558;42.700;23.360;2023-04-15T14:37:46;1.52;;;1.20;;
3095;SDS011;1558;42.700;23.360;2023-04-15T14:40:14;3.17;;;1.33;;
3095;SDS011;1558;42.700;23.360;2023-04-15T14:42:42;3.65;;;2.10;;
3095;SDS011;1558;42.700;23.360;2023-04-15T14:45:12;6.10;;;5.50;;
3095;SDS011;1558;42.700;23.360;2023-04-15T14:47:40;2.78;;;1.50;;
3095;SDS011;1558;42.700;23.360;2023-04-15T14:50:08;1.95;;;1.60;;
3095;SDS011;1558;42.700;23.360;2023-04-15T14:52:37;1.55;;;1.45;;
3095;SDS011;1558;42.700;23.360;2023-04-15T14:55:05;3.50;;;1.75;;
3095;SDS011;1558;42.700;23.360;2023-04-15T14:57:35;2.95;;;1.98;;
3095;SDS011;1558;42.700;23.360;2023-04-15T15:00:04;1.55;;;1.42;;
3095;SDS011;1558;42.700;23.360;2023-04-15T15:02:35;2.47;;;1.30;;
3095;SDS011;1558;42.700;23.360;2023-04-15T15:05:06;1.95;;;1.30;;
3095;SDS011;1558;42.700;23.360;2023-04-15T15:07:35;3.15;;;1.60;;
3095;SDS011;1558;42.700;23.360;2023-04-15T15:10:03;2.88;;;1.75;;
3095;SDS011;1558;42.700;23.360;2023-04-15T15:12:32;2.03;;;1.50;;
3095;SDS011;1558;42.700;23.360;2023-04-15T15:15:01;2.55;;;1.60;;
3095;SDS011;1558;42.700;23.360;2023-04-15T15:17:42;2.83;;;1.65;;
3095;SDS011;1558;42.700;23.360;2023-04-15T15:20:11;3.60;;;2.47;;
3095;SDS011;1558;42.700;23.360;2023-04-15T15:22:39;2.00;;;1.77;;
3095;SDS011;1558;42.700;23.360;2023-04-15T15:25:07;2.63;;;1.50;;
3095;SDS011;1558;42.700;23.360;2023-04-15T15:27:35;2.50;;;1.50;;
3095;SDS011;1558;42.700;23.360;2023-04-15T15:30:04;2.37;;;1.60;;
3095;SDS011;1558;42.700;23.360;2023-04-15T15:32:32;2.33;;;1.73;;
3095;SDS011;1558;42.700;23.360;2023-04-15T15:35:03;2.53;;;2.03;;
3095;SDS011;1558;42.700;23.360;2023-04-15T15:37:31;3.27;;;1.70;;
3095;SDS011;1558;42.700;23.360;2023-04-15T15:39:59;2.77;;;2.00;;
3095;SDS011;1558;42.700;23.360;2023-04-15T15:42:29;3.13;;;1.67;;
3095;SDS011;1558;42.700;23.360;2023-04-15T15:44:59;3.57;;;1.70;;
3095;SDS011;1558;42.700;23.360;2023-04-15T15:47:27;3.00;;;1.90;;
3095;SDS011;1558;42.700;23.360;2023-04-15T15:49:55;2.73;;;1.73;;
3095;SDS011;1558;42.700;23.360;2023-04-15T15:52:26;3.30;;;1.40;;
3095;SDS011;1558;42.700;23.360;2023-04-15T15:54:55;1.90;;;1.60;;
3095;SDS011;1558;42.700;23.360;2023-04-15T15:57:22;2.83;;;1.70;;
3095;SDS011;1558;42.700;23.360;2023-04-15T15:59:51;2.37;;;1.60;;
3095;SDS011;1558;42.700;23.360;2023-04-15T16:02:35;2.30;;;1.70;;
3095;SDS011;1558;42.700;23.360;2023-04-15T16:05:23;2.50;;;1.40;;
3095;SDS011;1558;42.700;23.360;2023-04-15T16:07:53;3.13;;;1.73;;
3095;SDS011;1558;42.700;23.360;2023-04-15T16:10:21;1.93;;;1.20;;
3095;SDS011;1558;42.700;23.360;2023-04-15T16:12:49;2.27;;;1.10;;
3095;SDS011;1558;42.700;23.360;2023-04-15T16:15:17;3.43;;;1.87;;
3095;SDS011;1558;42.700;23.360;2023-04-15T16:17:45;2.43;;;1.80;;
3095;SDS011;1558;42.700;23.360;2023-04-15T16:20:13;2.13;;;1.57;;
3095;SDS011;1558;42.700;23.360;2023-04-15T16:22:42;2.13;;;1.70;;
3095;SDS011;1558;42.700;23.360;2023-04-15T16:25:11;2.67;;;1.77;;
3095;SDS011;1558;42.700;23.360;2023-04-15T16:27:40;3.50;;;2.60;;
3095;SDS011;1558;42.700;23.360;2023-04-15T16:30:24;6.33;;;3.60;;
3095;SDS011;1558;42.700;23.360;2023-04-15T16:32:52;5.50;;;3.50;;
3095;SDS011;1558;42.700;23.360;2023-04-15T16:35:20;2.37;;;2.03;;
3095;SDS011;1558;42.700;23.360;2023-04-15T16:37:48;4.83;;;1.80;;
3095;SDS011;1558;42.700;23.360;2023-04-15T16:40:18;4.23;;;2.83;;
3095;SDS011;1558;42.700;23.360;2023-04-15T16:42:46;7.83;;;4.57;;
3095;SDS011;1558;42.700;23.360;2023-04-15T16:45:14;4.40;;;3.40;;
3095;SDS011;1558;42.700;23.360;2023-04-15T16:47:42;5.57;;;2.80;;
3095;SDS011;1558;42.700;23.360;2023-04-15T16:50:11;4.17;;;2.97;;
3095;SDS011;1558;42.700;23.360;2023-04-15T16:52:39;8.07;;;6.13;;
3095;SDS011;1558;42.700;23.360;2023-04-15T16:55:07;8.60;;;6.60;;
3095;SDS011;1558;42.700;23.360;2023-04-15T16:57:37;11.37;;;7.00;;
3095;SDS011;1558;42.700;23.360;2023-04-15T17:00:25;11.00;;;7.13;;
3095;SDS011;1558;42.700;23.360;2023-04-15T17:02:53;8.53;;;6.60;;
3095;SDS011;1558;42.700;23.360;2023-04-15T17:05:22;10.03;;;7.40;;
3095;SDS011;1558;42.700;23.360;2023-04-15T17:07:50;6.07;;;4.53;;
3095;SDS011;1558;42.700;23.360;2023-04-15T17:10:18;7.27;;;4.90;;
3095;SDS011;1558;42.700;23.360;2023-04-15T17:12:50;5.03;;;4.20;;
3095;SDS011;1558;42.700;23.360;2023-04-15T17:15:18;5.00;;;3.63;;
3095;SDS011;1558;42.700;23.360;2023-04-15T17:17:46;6.33;;;4.07;;
3095;SDS011;1558;42.700;23.360;2023-04-15T17:20:15;4.73;;;2.70;;
3095;SDS011;1558;42.700;23.360;2023-04-15T17:22:44;4.20;;;2.70;;
3095;SDS011;1558;42.700;23.360;2023-04-15T17:25:12;4.60;;;2.37;;
3095;SDS011;1558;42.700;23.360;2023-04-15T17:27:40;4.10;;;2.87;;
3095;SDS011;1558;42.700;23.360;2023-04-15T17:30:10;3.30;;;2.43;;
3095;SDS011;1558;42.700;23.360;2023-04-15T17:32:40;4.53;;;3.00;;
3095;SDS011;1558;42.700;23.360;2023-04-15T17:35:08;3.13;;;2.83;;
3095;SDS011;1558;42.700;23.360;2023-04-15T17:37:37;4.70;;;3.17;;
3095;SDS011;1558;42.700;23.360;2023-04-15T17:40:05;9.27;;;6.43;;
3095;SDS011;1558;42.700;23.360;2023-04-15T17:42:35;5.27;;;3.40;;
3095;SDS011;1558;42.700;23.360;2023-04-15T17:45:03;5.57;;;3.63;;
3095;SDS011;1558;42.700;23.360;2023-04-15T17:47:33;5.40;;;3.50;;
3095;SDS011;1558;42.700;23.360;2023-04-15T17:50:04;7.40;;;3.20;;
3095;SDS011;1558;42.700;23.360;2023-04-15T17:52:33;6.73;;;3.87;;
3095;SDS011;1558;42.700;23.360;2023-04-15T17:55:01;4.20;;;3.50;;
3095;SDS011;1558;42.700;23.360;2023-04-15T17:57:29;5.43;;;4.03;;
3095;SDS011;1558;42.700;23.360;2023-04-15T17:59:58;7.37;;;4.07;;
3095;SDS011;1558;42.700;23.360;2023-04-15T18:02:26;4.30;;;2.90;;
3095;SDS011;1558;42.700;23.360;2023-04-15T18:04:56;5.27;;;3.33;;
3095;SDS011;1558;42.700;23.360;2023-04-15T18:07:24;3.93;;;3.00;;
3095;SDS011;1558;42.700;23.360;2023-04-15T18:09:52;6.70;;;2.77;;
3095;SDS011;1558;42.700;23.360;2023-04-15T18:12:21;6.13;;;4.77;;
3095;SDS011;1558;42.700;23.360;2023-04-15T18:14:49;11.63;;;7.87;;
3095;SDS011;1558;42.700;23.360;2023-04-15T18:17:18;7.50;;;4.43;;
3095;SDS011;1558;42.700;23.360;2023-04-15T18:19:46;6.60;;;4.63;;
3095;SDS011;1558;42.700;23.360;2023-04-15T18:22:17;5.53;;;3.47;;
3095;SDS011;1558;42.700;23.360;2023-04-15T18:24:45;5.60;;;3.23;;
3095;SDS011;1558;42.700;23.360;2023-04-15T18:27:15;9.80;;;4.43;;
3095;SDS011;1558;42.700;23.360;2023-04-15T18:29:43;4.00;;;2.83;;
3095;SDS011;1558;42.700;23.360;2023-04-15T18:32:11;8.20;;;3.67;;
3095;SDS011;1558;42.700;23.360;2023-04-15T18:34:40;8.27;;;4.33;;
3095;SDS011;1558;42.700;23.360;2023-04-15T18:37:09;5.67;;;4.97;;
3095;SDS011;1558;42.700;23.360;2023-04-15T18:39:39;7.87;;;4.83;;
3095;SDS011;1558;42.700;23.360;2023-04-15T18:42:07;10.13;;;5.50;;
3095;SDS011;1558;42.700;23.360;2023-04-15T18:44:35;8.30;;;5.03;;
3095;SDS011;1558;42.700;23.360;2023-04-15T18:47:03;4.90;;;3.40;;
3095;SDS011;1558;42.700;23.360;2023-04-15T18:49:31;3.37;;;2.90;;
3095;SDS011;1558;42.700;23.360;2023-04-15T18:52:00;7.23;;;4.60;;
3095;SDS011;1558;42.700;23.360;2023-04-15T18:54:29;8.97;;;6.47;;
3095;SDS011;1558;42.700;23.360;2023-04-15T18:56:59;8.60;;;5.27;;
3095;SDS011;1558;42.700;23.360;2023-04-15T18:59:27;11.10;;;6.93;;
3095;SDS011;1558;42.700;23.360;2023-04-15T19:01:56;10.30;;;7.97;;
3095;SDS011;1558;42.700;23.360;2023-04-15T19:04:25;13.07;;;8.20;;
3095;SDS011;1558;42.700;23.360;2023-04-15T19:06:55;11.87;;;6.77;;
3095;SDS011;1558;42.700;23.360;2023-04-15T19:09:24;7.83;;;5.90;;
3095;SDS011;1558;42.700;23.360;2023-04-15T19:11:52;6.93;;;4.87;;
3095;SDS011;1558;42.700;23.360;2023-04-15T19:14:23;8.10;;;5.27;;
3095;SDS011;1558;42.700;23.360;2023-04-15T19:16:51;14.57;;;6.23;;
3095;SDS011;1558;42.700;23.360;2023-04-15T19:19:20;18.47;;;10.00;;
3095;SDS011;1558;42.700;23.360;2023-04-15T19:21:48;8.20;;;5.53;;
3095;SDS011;1558;42.700;23.360;2023-04-15T19:24:17;8.17;;;5.77;;
3095;SDS011;1558;42.700;23.360;2023-04-15T19:26:46;6.67;;;5.60;;
3095;SDS011;1558;42.700;23.360;2023-04-15T19:29:16;8.23;;;5.90;;
3095;SDS011;1558;42.700;23.360;2023-04-15T19:31:46;7.97;;;6.17;;
3095;SDS011;1558;42.700;23.360;2023-04-15T19:34:14;8.67;;;6.43;;
3095;SDS011;1558;42.700;23.360;2023-04-15T19:36:43;6.43;;;5.57;;
3095;SDS011;1558;42.700;23.360;2023-04-15T19:39:12;7.53;;;6.30;;
3095;SDS011;1558;42.700;23.360;2023-04-15T19:41:40;9.33;;;6.20;;
3095;SDS011;1558;42.700;23.360;2023-04-15T19:44:09;8.57;;;6.67;;
3095;SDS011;1558;42.700;23.360;2023-04-15T19:46:39;11.67;;;8.03;;
3095;SDS011;1558;42.700;23.360;2023-04-15T19:49:11;8.47;;;6.87;;
3095;SDS011;1558;42.700;23.360;2023-04-15T19:51:40;9.13;;;7.30;;
3095;SDS011;1558;42.700;23.360;2023-04-15T19:54:08;9.97;;;8.17;;
3095;SDS011;1558;42.700;23.360;2023-04-15T19:56:36;12.37;;;9.67;;
3095;SDS011;1558;42.700;23.360;2023-04-15T19:59:04;9.37;;;7.27;;
3095;SDS011;1558;42.700;23.360;2023-04-15T20:01:33;8.53;;;6.83;;
3095;SDS011;1558;42.700;23.360;2023-04-15T20:04:01;11.43;;;9.00;;
3095;SDS011;1558;42.700;23.360;2023-04-15T20:06:31;10.00;;;8.40;;
3095;SDS011;1558;42.700;23.360;2023-04-15T20:08:59;12.93;;;8.87;;
3095;SDS011;1558;42.700;23.360;2023-04-15T20:11:28;10.10;;;7.97;;
3095;SDS011;1558;42.700;23.360;2023-04-15T20:14:16;8.87;;;7.07;;
3095;SDS011;1558;42.700;23.360;2023-04-15T20:16:44;10.00;;;7.33;;
3095;SDS011;1558;42.700;23.360;2023-04-15T20:19:13;9.40;;;7.60;;
3095;SDS011;1558;42.700;23.360;2023-04-15T20:21:42;9.90;;;7.37;;
3095;SDS011;1558;42.700;23.360;2023-04-15T20:24:10;9.50;;;7.43;;
3095;SDS011;1558;42.700;23.360;2023-04-15T20:26:38;9.13;;;7.47;;
3095;SDS011;1558;42.700;23.360;2023-04-15T20:29:06;9.30;;;6.80;;
3095;SDS011;1558;42.700;23.360;2023-04-15T20:31:34;10.13;;;6.97;;
3095;SDS011;1558;42.700;23.360;2023-04-15T20:34:03;9.93;;;7.00;;
3095;SDS011;1558;42.700;23.360;2023-04-15T20:36:31;9.43;;;8.30;;
3095;SDS011;1558;42.700;23.360;2023-04-15T20:39:00;9.50;;;7.67;;
3095;SDS011;1558;42.700;23.360;2023-04-15T20:41:29;8.60;;;7.70;;
3095;SDS011;1558;42.700;23.360;2023-04-15T20:43:57;8.37;;;7.13;;
3095;SDS011;1558;42.700;23.360;2023-04-15T20:46:25;8.90;;;7.10;;
3095;SDS011;1558;42.700;23.360;2023-04-15T20:48:53;7.13;;;6.00;;
3095;SDS011;1558;42.700;23.360;2023-04-15T20:51:22;7.17;;;5.40;;
3095;SDS011;1558;42.700;23.360;2023-04-15T20:53:50;8.37;;;5.70;;
3095;SDS011;1558;42.700;23.360;2023-04-15T20:56:19;10.13;;;5.80;;
3095;SDS011;1558;42.700;23.360;2023-04-15T20:58:47;8.03;;;6.17;;
3095;SDS011;1558;42.700;23.360;2023-04-15T21:01:15;7.60;;;6.00;;
3095;SDS011;1558;42.700;23.360;2023-04-15T21:03:43;7.97;;;5.93;;
3095;SDS011;1558;42.700;23.360;2023-04-15T21:06:12;11.00;;;5.73;;
3095;SDS011;1558;42.700;23.360;2023-04-15T21:08:40;7.33;;;5.43;;
3095;SDS011;1558;42.700;23.360;2023-04-15T21:11:08;5.73;;;5.17;;
3095;SDS011;1558;42.700;23.360;2023-04-15T21:13:38;10.17;;;8.70;;
3095;SDS011;1558;42.700;23.360;2023-04-15T21:16:06;10.57;;;5.63;;
3095;SDS011;1558;42.700;23.360;2023-04-15T21:18:34;7.67;;;5.87;;
3095;SDS011;1558;42.700;23.360;2023-04-15T21:21:03;8.03;;;6.10;;
3095;SDS011;1558;42.700;23.360;2023-04-15T21:23:31;7.67;;;6.00;;
3095;SDS011;1558;42.700;23.360;2023-04-15T21:26:02;9.70;;;7.73;;
3095;SDS011;1558;42.700;23.360;2023-04-15T21:28:30;9.63;;;6.27;;
3095;SDS011;1558;42.700;23.360;2023-04-15T21:31:00;9.33;;;5.33;;
3095;SDS011;1558;42.700;23.360;2023-04-15T21:33:28;6.67;;;5.30;;
3095;SDS011;1558;42.700;23.360;2023-04-15T21:35:56;7.90;;;5.43;;
3095;SDS011;1558;42.700;23.360;2023-04-15T21:38:24;7.47;;;5.07;;
3095;SDS011;1558;42.700;23.360;2023-04-15T21:40:54;6.33;;;5.00;;
3095;SDS011;1558;42.700;23.360;2023-04-15T21:43:23;9.00;;;5.07;;
3095;SDS011;1558;42.700;23.360;2023-04-15T21:45:51;7.43;;;5.23;;
3095;SDS011;1558;42.700;23.360;2023-04-15T21:48:41;7.43;;;5.47;;
3095;SDS011;1558;42.700;23.360;2023-04-15T21:51:09;10.37;;;8.57;;
3095;SDS011;1558;42.700;23.360;2023-04-15T21:53:37;8.97;;;5.30;;
3095;SDS011;1558;42.700;23.360;2023-04-15T21:56:05;6.23;;;5.53;;
3095;SDS011;1558;42.700;23.360;2023-04-15T21:58:34;9.07;;;5.43;;
3095;SDS011;1558;42.700;23.360;2023-04-15T22:01:03;10.63;;;6.13;;
3095;SDS011;1558;42.700;23.360;2023-04-15T22:03:32;6.93;;;5.47;;
3095;SDS011;1558;42.700;23.360;2023-04-15T22:06:02;6.87;;;6.00;;
3095;SDS011;1558;42.700;23.360;2023-04-15T22:08:31;9.27;;;7.07;;
3095;SDS011;1558;42.700;23.360;2023-04-15T22:11:17;8.93;;;7.27;;
3095;SDS011;1558;42.700;23.360;2023-04-15T22:13:48;8.00;;;6.63;;
3095;SDS011;1558;42.700;23.360;2023-04-15T22:16:16;10.03;;;7.87;;
3095;SDS011;1558;42.700;23.360;2023-04-15T22:18:44;9.50;;;7.50;;
3095;SDS011;1558;42.700;23.360;2023-04-15T22:21:14;10.40;;;7.53;;
3095;SDS011;1558;42.700;23.360;2023-04-15T22:23:44;13.47;;;9.00;;
3095;SDS011;1558;42.700;23.360;2023-04-15T22:26:12;11.00;;;7.30;;
3095;SDS011;1558;42.700;23.360;2023-04-15T22:28:40;10.60;;;7.20;;
3095;SDS011;1558;42.700;23.360;2023-04-15T22:31:08;9.63;;;6.80;;
3095;SDS011;1558;42.700;23.360;2023-04-15T22:33:36;7.63;;;5.93;;
3095;SDS011;1558;42.700;23.360;2023-04-15T22:36:05;7.40;;;6.17;;
3095;SDS011;1558;42.700;23.360;2023-04-15T22:38:35;4.57;;;4.07;;
3095;SDS011;1558;42.700;23.360;2023-04-15T22:41:04;5.60;;;3.80;;
3095;SDS011;1558;42.700;23.360;2023-04-15T22:43:32;4.57;;;3.57;;
3095;SDS011;1558;42.700;23.360;2023-04-15T22:46:00;6.27;;;3.73;;
3095;SDS011;1558;42.700;23.360;2023-04-15T22:48:28;6.50;;;4.40;;
3095;SDS011;1558;42.700;23.360;2023-04-15T22:50:56;6.83;;;4.37;;
3095;SDS011;1558;42.700;23.360;2023-04-15T22:53:24;5.87;;;3.80;;
3095;SDS011;1558;42.700;23.360;2023-04-15T22:55:53;5.53;;;3.50;;
3095;SDS011;1558;42.700;23.360;2023-04-15T22:58:21;5.70;;;3.90;;
3095;SDS011;1558;42.700;23.360;2023-04-15T23:00:50;3.90;;;3.10;;
3095;SDS011;1558;42.700;23.360;2023-04-15T23:03:18;4.00;;;3.33;;
3095;SDS011;1558;42.700;23.360;2023-04-15T23:05:46;4.67;;;3.33;;
3095;SDS011;1558;42.700;23.360;2023-04-15T23:08:15;4.27;;;3.30;;
3095;SDS011;1558;42.700;23.360;2023-04-15T23:10:43;9.93;;;6.40;;
3095;SDS011;1558;42.700;23.360;2023-04-15T23:13:13;4.67;;;3.90;;
3095;SDS011;1558;42.700;23.360;2023-04-15T23:15:41;4.50;;;3.43;;
3095;SDS011;1558;42.700;23.360;2023-04-15T23:18:11;4.23;;;3.83;;
3095;SDS011;1558;42.700;23.360;2023-04-15T23:20:39;5.97;;;4.03;;
3095;SDS011;1558;42.700;23.360;2023-04-15T23:23:07;6.73;;;3.80;;
3095;SDS011;1558;42.700;23.360;2023-04-15T23:25:35;4.20;;;3.70;;
3095;SDS011;1558;42.700;23.360;2023-04-15T23:28:04;5.93;;;4.73;;
3095;SDS011;1558;42.700;23.360;2023-04-15T23:30:33;6.00;;;4.53;;
3095;SDS011;1558;42.700;23.360;2023-04-15T23:33:01;6.13;;;4.10;;
3095;SDS011;1558;42.700;23.360;2023-04-15T23:35:29;5.47;;;4.20;;